Great Falls (GTF/KGTF)

Map

Destinations

Information

Location
Great Falls , MT
Local Time
16:34 / 4:34 pm
GMT Time
22:34 / 10:34 pm
Gates
Unassigned
No FAA reported delays
METAR KGTF 242153Z 03006KT 10SM CLR 29/07 A2988 RMK AO2 SLP080 T02940072
TAF KGTF 241737Z 2418/2518 VRB05KT P6SM SCT150 FM250000 32010KT P6SM SCT100 FM250400 VRB05KT P6SM FEW180 FM250800 36010KT P6SM FEW180